Latest Coastal Weather Observations for Sydney Harbour

IDN60701

Issued at 5:15 pm EDT Thursday 23 October 2014 (issued every 10 minutes, with the page automatically refreshed every 10 minutes)

About coastal observations | Map of coastal stations | Coastal observations for NSW | Marine services | Other Formats
Station Details ID: 066196 Name: WEDDING CAKE WEST Lat: -33.84 Lon: 151.26 Height: 6.0 m
Data from the previous 72 hours. | See also: Recent months for locations in New South Wales
Date/Time
EDT
Temp

°C
Wind Pressure Rain
since 9am
mm
Weather Cloud Vis
km
Sea
Height
m
Swell
Dir
 
Speed
knots
Gust
knots
hPa Trend Height
m
Period
s
Dir
23/05:00pm 21.4 NE 2 6 - - - - - - - - - -
23/04:30pm 20.1 ENE 4 5 - - - - - - - - - -
23/04:00pm 20.3 ENE 7 8 - - - - - - - - - -
23/03:30pm 20.0 ENE 6 7 - - - - - - - - - -
23/03:00pm 20.5 ENE 7 8 - - - - - - - - - -
23/02:30pm 20.2 ENE 7 8 - - - - - - - - - -
23/02:00pm 20.0 ENE 7 10 - - - - - - - - - -
23/01:30pm 21.0 ENE 6 7 - - - - - - - - - -
23/01:00pm 20.1 NE 6 7 - - - - - - - - - -
23/12:30pm 20.0 NE 6 7 - - - - - - - - - -
23/12:00pm 19.6 ENE 7 9 - - - - - - - - - -
23/11:30am 19.5 E 6 7 - - - - - - - - - -
23/11:00am 19.9 ESE 5 6 - - - - - - - - - -
23/10:30am 21.3 CALM 0 0 - - - - - - - - - -
23/10:00am 20.9 ESE 3 4 - - - - - - - - - -
23/09:30am 18.8 ESE 5 6 - - - - - - - - - -
23/09:00am 18.1 ESE 2 3 - - - - - - - - - -
23/08:30am 17.9 NNE 4 5 - - - - - - - - - -
23/08:00am 17.9 CALM 0 0 - - - - - - - - - -
23/07:30am 16.5 N 3 5 - - - - - - - - - -
23/07:00am 16.1 N 2 4 - - - - - - - - - -
23/06:30am 16.0 N 5 6 - - - - - - - - - -
23/06:00am 15.7 N 5 6 - - - - - - - - - -
23/05:30am 16.0 N 5 6 - - - - - - - - - -
23/05:00am 15.9 CALM 0 4 - - - - - - - - - -
23/04:30am 16.0 NW 4 5 - - - - - - - - - -
23/04:00am 16.4 CALM 0 0 - - - - - - - - - -
23/03:30am 16.6 N 6 7 - - - - - - - - - -
23/03:00am 16.7 N 6 7 - - - - - - - - - -
23/02:30am 17.0 N 5 7 - - - - - - - - - -
23/02:00am 17.1 N 5 6 - - - - - - - - - -
23/01:30am 17.4 N 7 9 - - - - - - - - - -
23/01:00am 17.9 N 11 14 - - - - - - - - - -
23/12:30am 18.0 N 13 16 - - - - - - - - - -
23/12:00am 18.2 N 14 17 - - - - - - - - - -
 
Date/Time
EDT
Temp

°C
Wind Pressure Rain
since 9am
mm
Weather Cloud Vis
km
Sea
Height
m
Swell
Dir
 
Speed
knots
Gust
knots
hPa Trend Height
m
Period
s
Dir
22/11:30pm 18.4 N 14 21 - - - - - - - - - -
22/11:00pm 18.6 N 19 22 - - - - - - - - - -
22/10:30pm 18.7 N 19 23 - - - - - - - - - -
22/10:00pm 18.7 NNE 18 22 - - - - - - - - - -
22/09:30pm 18.8 NNE 18 23 - - - - - - - - - -
22/09:00pm 18.8 NNE 18 21 - - - - - - - - - -
22/08:30pm 18.8 NNE 16 19 - - - - - - - - - -
22/08:00pm 18.9 NNE 18 21 - - - - - - - - - -
22/07:30pm 18.9 NNE 18 20 - - - - - - - - - -
22/07:00pm 18.8 NNE 17 20 - - - - - - - - - -
22/06:30pm 18.8 NNE 19 22 - - - - - - - - - -
22/06:00pm 18.7 NNE 20 24 - - - - - - - - - -
22/05:30pm 18.7 NNE 19 23 - - - - - - - - - -
22/05:00pm 18.7 NNE 18 21 - - - - - - - - - -
22/04:30pm 18.7 NNE 19 22 - - - - - - - - - -
22/04:00pm 18.6 NNE 18 21 - - - - - - - - - -
22/03:30pm 18.4 NNE 18 24 - - - - - - - - - -
22/03:00pm 18.4 NNE 18 22 - - - - - - - - - -
22/02:30pm 18.3 NNE 17 19 - - - - - - - - - -
22/02:00pm 18.1 NE 16 20 - - - - - - - - - -
22/01:30pm 18.0 NE 15 19 - - - - - - - - - -
22/01:00pm 17.8 NE 16 18 - - - - - - - - - -
22/12:30pm 17.9 NNE 15 19 - - - - - - - - - -
22/12:00pm 17.4 NNE 13 15 - - - - - - - - - -
22/11:30am 17.3 NNE 14 16 - - - - - - - - - -
22/11:00am 17.2 NNE 13 16 - - - - - - - - - -
22/10:30am 17.4 NNE 13 17 - - - - - - - - - -
22/10:00am 17.5 NNE 11 16 - - - - - - - - - -
22/09:30am 17.4 NNE 6 9 - - - - - - - - - -
22/09:00am 17.1 NNW 4 5 - - - - - - - - - -
22/08:30am 16.9 NNW 5 7 - - - - - - - - - -
22/08:00am 16.7 WNW 1 5 - - - - - - - - - -
22/07:30am 16.4 WNW 3 5 - - - - - - - - - -
22/07:00am 15.8 CALM 0 0 - - - - - - - - - -
22/06:30am 15.8 WNW 6 7 - - - - - - - - - -
22/06:00am 15.7 WNW 6 7 - - - - - - - - - -
22/05:30am 15.7 NW 5 6 - - - - - - - - - -
22/05:00am 15.8 WNW 6 6 - - - - - - - - - -
22/04:30am 15.5 WNW 6 6 - - - - - - - - - -
22/04:00am 15.3 NW 7 8 - - - - - - - - - -
22/03:30am 15.6 NW 4 6 - - - - - - - - - -
22/03:00am 15.6 WNW 5 6 - - - - - - - - - -
22/02:30am 16.1 NNE 5 6 - - - - - - - - - -
22/02:00am 16.1 NE 5 6 - - - - - - - - - -
22/01:30am 15.8 NE 4 4 - - - - - - - - - -
22/01:00am 15.5 CALM 0 0 - - - - - - - - - -
22/12:30am 15.3 NE 2 3 - - - - - - - - - -
22/12:00am 15.6 NE 4 5 - - - - - - - - - -
 
Date/Time
EDT
Temp

°C
Wind Pressure Rain
since 9am
mm
Weather Cloud Vis
km
Sea
Height
m
Swell
Dir
 
Speed
knots
Gust
knots
hPa Trend Height
m
Period
s
Dir
21/11:30pm 15.1 NE 19 22 - - - - - - - - - -
21/11:00pm 15.7 NE 17 20 - - - - - - - - - -
21/10:30pm 16.8 NNE 9 11 - - - - - - - - - -
21/10:00pm 16.8 NE 11 13 - - - - - - - - - -
21/09:30pm 16.8 ENE 10 13 - - - - - - - - - -
21/09:00pm 16.8 ENE 12 15 - - - - - - - - - -
21/08:30pm 16.7 NE 11 14 - - - - - - - - - -
21/08:00pm 16.7 NE 11 15 - - - - - - - - - -
21/07:30pm 16.8 NE 10 12 - - - - - - - - - -
21/07:00pm 16.6 NE 10 11 - - - - - - - - - -
21/06:30pm 16.6 ENE 10 12 - - - - - - - - - -
21/06:00pm 16.6 ENE 11 12 - - - - - - - - - -
21/05:30pm 16.8 E 9 12 - - - - - - - - - -
21/05:00pm 17.0 ENE 8 10 - - - - - - - - - -
21/04:30pm 16.8 ENE 9 11 - - - - - - - - - -
21/04:00pm 16.9 ENE 8 11 - - - - - - - - - -
21/03:30pm 17.0 ENE 10 13 - - - - - - - - - -
21/03:00pm 17.0 ENE 9 11 - - - - - - - - - -
21/02:30pm 17.3 ENE 8 11 - - - - - - - - - -
21/02:00pm 17.3 E 9 12 - - - - - - - - - -
21/01:30pm 17.3 E 10 14 - - - - - - - - - -
21/01:00pm 17.3 E 11 14 - - - - - - - - - -
21/12:30pm 17.3 E 9 13 - - - - - - - - - -
21/12:00pm 17.3 E 7 10 - - - - - - - - - -
21/11:30am 17.1 E 9 12 - - - - - - - - - -
21/11:00am 17.2 E 9 12 - - - - - - - - - -
21/10:30am 17.1 ESE 10 11 - - - - - - - - - -
21/10:00am 17.1 E 9 11 - - - - - - - - - -
21/09:30am 17.1 E 9 11 - - - - - - - - - -
21/09:00am 16.9 E 10 14 - - - - - - - - - -
21/08:30am 16.9 E 9 11 - - - - - - - - - -
21/08:00am 16.8 ESE 8 13 - - - - - - - - - -
21/07:30am 16.8 ESE 7 12 - - - - - - - - - -
21/07:00am 16.7 SE 7 9 - - - - - - - - - -
21/06:30am 16.6 E 10 16 - - - - - - - - - -
21/06:00am 16.6 SE 11 17 - - - - - - - - - -
21/05:30am 16.4 ESE 8 12 - - - - - - - - - -
21/05:00am 16.3 ESE 9 15 - - - - - - - - - -
21/04:30am 16.4 E 7 12 - - - - - - - - - -
21/04:00am 16.4 SSE 9 17 - - - - - - - - - -
21/03:30am 16.3 SSE 4 9 - - - - - - - - - -
21/03:00am 16.4 SE 5 8 - - - - - - - - - -
21/02:30am 16.2 SSE 8 16 - - - - - - - - - -
21/02:00am 16.9 ESE 10 13 - - - - - - - - - -
21/01:30am 17.0 ESE 10 16 - - - - - - - - - -
21/01:00am 16.9 ESE 10 13 - - - - - - - - - -
21/12:30am 17.0 ESE 9 14 - - - - - - - - - -
21/12:00am 16.2 SSE 11 16 - - - - - - - - - -
 
Date/Time
EDT
Temp

°C
Wind Pressure Rain
since 9am
mm
Weather Cloud Vis
km
Sea
Height
m
Swell
Dir
 
Speed
knots
Gust
knots
hPa Trend Height
m
Period
s
Dir
20/11:30pm 16.9 ESE 12 16 - - - - - - - - - -
20/11:00pm 16.9 ESE 12 16 - - - - - - - - - -
20/10:30pm 17.4 ESE 10 13 - - - - - - - - - -
20/10:00pm 16.5 SE 13 17 - - - - - - - - - -
20/09:30pm 17.2 SE 11 18 - - - - - - - - - -
20/09:00pm 16.9 SE 7 10 - - - - - - - - - -
20/08:30pm 16.8 SSE 10 13 - - - - - - - - - -
20/08:00pm 17.1 ESE 9 12 - - - - - - - - - -
20/07:30pm 16.4 SSE 14 20 - - - - - - - - - -
20/07:00pm 17.2 SSE 12 16 - - - - - - - - - -
20/06:30pm 17.3 SSE 13 19 - - - - - - - - - -
20/06:00pm 17.4 SSE 8 12 - - - - - - - - - -
20/05:30pm 17.2 S 12 18 - - - - - - - - - -

Other Formats:

Comma delimited format used in spreadsheet applications
http://www.bom.gov.au/fwo/IDN60701/IDN60701.95766.axf

JavaScript Object Notation format (JSON) in row-major order
http://www.bom.gov.au/fwo/IDN60701/IDN60701.95766.json